sensor_id;sensor_type;location;lat;lon;timestamp;P1;durP1;ratioP1;P2;durP2;ratioP2
74620;SDS011;64861;47.546;19.254;2022-11-15T00:00:03;13.73;;;8.98;;
74620;SDS011;64861;47.546;19.254;2022-11-15T00:02:29;14.63;;;8.90;;
74620;SDS011;64861;47.546;19.254;2022-11-15T00:04:54;13.15;;;8.18;;
74620;SDS011;64861;47.546;19.254;2022-11-15T00:07:20;13.85;;;8.95;;
74620;SDS011;64861;47.546;19.254;2022-11-15T00:09:45;12.65;;;7.97;;
74620;SDS011;64861;47.546;19.254;2022-11-15T00:12:11;16.42;;;8.88;;
74620;SDS011;64861;47.546;19.254;2022-11-15T00:14:36;13.75;;;8.30;;
74620;SDS011;64861;47.546;19.254;2022-11-15T00:17:01;12.20;;;8.02;;
74620;SDS011;64861;47.546;19.254;2022-11-15T00:19:27;11.52;;;7.50;;
74620;SDS011;64861;47.546;19.254;2022-11-15T00:21:52;13.63;;;8.27;;
74620;SDS011;64861;47.546;19.254;2022-11-15T00:24:18;13.57;;;8.35;;
74620;SDS011;64861;47.546;19.254;2022-11-15T00:26:43;14.52;;;8.57;;
74620;SDS011;64861;47.546;19.254;2022-11-15T00:29:09;12.48;;;8.15;;
74620;SDS011;64861;47.546;19.254;2022-11-15T00:31:34;12.75;;;7.85;;
74620;SDS011;64861;47.546;19.254;2022-11-15T00:33:59;14.63;;;8.20;;
74620;SDS011;64861;47.546;19.254;2022-11-15T00:36:25;11.90;;;8.13;;
74620;SDS011;64861;47.546;19.254;2022-11-15T00:38:50;12.02;;;8.27;;
74620;SDS011;64861;47.546;19.254;2022-11-15T00:41:16;11.95;;;8.27;;
74620;SDS011;64861;47.546;19.254;2022-11-15T00:43:41;11.80;;;7.68;;
74620;SDS011;64861;47.546;19.254;2022-11-15T00:46:08;11.15;;;7.35;;
74620;SDS011;64861;47.546;19.254;2022-11-15T00:48:34;12.48;;;7.90;;
74620;SDS011;64861;47.546;19.254;2022-11-15T00:51:01;13.55;;;7.85;;
74620;SDS011;64861;47.546;19.254;2022-11-15T00:53:26;12.50;;;8.18;;
74620;SDS011;64861;47.546;19.254;2022-11-15T00:55:52;12.30;;;8.35;;
74620;SDS011;64861;47.546;19.254;2022-11-15T00:58:18;12.15;;;7.97;;
74620;SDS011;64861;47.546;19.254;2022-11-15T01:00:44;11.13;;;7.45;;
74620;SDS011;64861;47.546;19.254;2022-11-15T01:03:09;14.02;;;7.72;;
74620;SDS011;64861;47.546;19.254;2022-11-15T01:05:36;11.65;;;7.82;;
74620;SDS011;64861;47.546;19.254;2022-11-15T01:08:02;12.35;;;7.55;;
74620;SDS011;64861;47.546;19.254;2022-11-15T01:10:28;12.65;;;7.55;;
74620;SDS011;64861;47.546;19.254;2022-11-15T01:12:53;11.25;;;7.57;;
74620;SDS011;64861;47.546;19.254;2022-11-15T01:15:19;13.82;;;7.90;;
74620;SDS011;64861;47.546;19.254;2022-11-15T01:17:44;10.75;;;7.35;;
74620;SDS011;64861;47.546;19.254;2022-11-15T01:20:10;11.45;;;7.30;;
74620;SDS011;64861;47.546;19.254;2022-11-15T01:22:36;11.45;;;7.35;;
74620;SDS011;64861;47.546;19.254;2022-11-15T01:25:01;10.65;;;7.40;;
74620;SDS011;64861;47.546;19.254;2022-11-15T01:27:27;12.00;;;7.43;;
74620;SDS011;64861;47.546;19.254;2022-11-15T01:29:53;12.32;;;7.05;;
74620;SDS011;64861;47.546;19.254;2022-11-15T01:32:18;11.15;;;7.55;;
74620;SDS011;64861;47.546;19.254;2022-11-15T01:34:44;13.10;;;7.47;;
74620;SDS011;64861;47.546;19.254;2022-11-15T01:37:09;11.25;;;7.80;;
74620;SDS011;64861;47.546;19.254;2022-11-15T01:39:34;11.63;;;7.43;;
74620;SDS011;64861;47.546;19.254;2022-11-15T01:42:00;12.00;;;7.40;;
74620;SDS011;64861;47.546;19.254;2022-11-15T01:49:51;12.32;;;7.28;;
74620;SDS011;64861;47.546;19.254;2022-11-15T01:52:24;11.68;;;7.60;;
74620;SDS011;64861;47.546;19.254;2022-11-15T01:55:34;10.75;;;6.55;;
74620;SDS011;64861;47.546;19.254;2022-11-15T01:57:49;9.65;;;6.97;;
74620;SDS011;64861;47.546;19.254;2022-11-15T02:00:18;10.35;;;6.50;;
74620;SDS011;64861;47.546;19.254;2022-11-15T02:02:43;9.63;;;6.55;;
74620;SDS011;64861;47.546;19.254;2022-11-15T02:05:09;10.43;;;6.82;;
74620;SDS011;64861;47.546;19.254;2022-11-15T02:07:35;9.52;;;6.80;;
74620;SDS011;64861;47.546;19.254;2022-11-15T02:10:02;10.85;;;6.72;;
74620;SDS011;64861;47.546;19.254;2022-11-15T02:12:34;11.13;;;7.35;;
74620;SDS011;64861;47.546;19.254;2022-11-15T02:15:00;10.43;;;6.43;;
74620;SDS011;64861;47.546;19.254;2022-11-15T02:31:14;9.13;;;5.88;;
74620;SDS011;64861;47.546;19.254;2022-11-15T02:33:54;10.43;;;6.38;;
74620;SDS011;64861;47.546;19.254;2022-11-15T02:36:40;9.05;;;6.10;;
74620;SDS011;64861;47.546;19.254;2022-11-15T02:42:16;9.65;;;6.05;;
74620;SDS011;64861;47.546;19.254;2022-11-15T02:45:05;9.40;;;6.33;;
74620;SDS011;64861;47.546;19.254;2022-11-15T02:47:34;9.48;;;6.50;;
74620;SDS011;64861;47.546;19.254;2022-11-15T02:50:07;10.57;;;6.10;;
74620;SDS011;64861;47.546;19.254;2022-11-15T02:52:35;8.43;;;5.95;;
74620;SDS011;64861;47.546;19.254;2022-11-15T02:55:01;9.68;;;6.15;;
74620;SDS011;64861;47.546;19.254;2022-11-15T02:57:44;10.60;;;6.97;;
74620;SDS011;64861;47.546;19.254;2022-11-15T03:00:17;11.27;;;5.90;;
74620;SDS011;64861;47.546;19.254;2022-11-15T03:08:55;9.75;;;6.25;;
74620;SDS011;64861;47.546;19.254;2022-11-15T03:11:16;10.75;;;6.10;;
74620;SDS011;64861;47.546;19.254;2022-11-15T03:18:57;13.30;;;6.85;;
74620;SDS011;64861;47.546;19.254;2022-11-15T03:21:27;13.18;;;6.53;;
74620;SDS011;64861;47.546;19.254;2022-11-15T03:23:55;11.95;;;5.95;;
74620;SDS011;64861;47.546;19.254;2022-11-15T03:26:24;12.25;;;6.22;;
74620;SDS011;64861;47.546;19.254;2022-11-15T03:28:55;12.23;;;6.00;;
74620;SDS011;64861;47.546;19.254;2022-11-15T03:31:26;10.32;;;6.30;;
74620;SDS011;64861;47.546;19.254;2022-11-15T03:34:12;11.23;;;6.22;;
74620;SDS011;64861;47.546;19.254;2022-11-15T03:36:51;7.97;;;5.53;;
74620;SDS011;64861;47.546;19.254;2022-11-15T03:39:17;9.77;;;6.40;;
74620;SDS011;64861;47.546;19.254;2022-11-15T03:44:26;9.43;;;5.90;;
74620;SDS011;64861;47.546;19.254;2022-11-15T03:47:06;9.30;;;5.60;;
74620;SDS011;64861;47.546;19.254;2022-11-15T03:49:33;9.38;;;6.22;;
74620;SDS011;64861;47.546;19.254;2022-11-15T03:52:02;10.38;;;5.57;;
74620;SDS011;64861;47.546;19.254;2022-11-15T03:54:28;9.23;;;5.90;;
74620;SDS011;64861;47.546;19.254;2022-11-15T03:56:54;9.95;;;5.93;;
74620;SDS011;64861;47.546;19.254;2022-11-15T03:59:20;9.05;;;5.82;;
74620;SDS011;64861;47.546;19.254;2022-11-15T04:01:45;11.05;;;5.70;;
74620;SDS011;64861;47.546;19.254;2022-11-15T04:04:10;9.55;;;5.80;;
74620;SDS011;64861;47.546;19.254;2022-11-15T04:06:36;11.15;;;5.90;;
74620;SDS011;64861;47.546;19.254;2022-11-15T04:09:02;12.45;;;6.38;;
74620;SDS011;64861;47.546;19.254;2022-11-15T04:11:27;8.57;;;5.78;;
74620;SDS011;64861;47.546;19.254;2022-11-15T04:13:52;9.02;;;5.80;;
74620;SDS011;64861;47.546;19.254;2022-11-15T04:16:18;11.15;;;6.38;;
74620;SDS011;64861;47.546;19.254;2022-11-15T04:18:43;11.20;;;6.07;;
74620;SDS011;64861;47.546;19.254;2022-11-15T04:21:09;9.93;;;6.05;;
74620;SDS011;64861;47.546;19.254;2022-11-15T04:23:53;11.43;;;6.03;;
74620;SDS011;64861;47.546;19.254;2022-11-15T04:26:37;11.23;;;5.90;;
74620;SDS011;64861;47.546;19.254;2022-11-15T04:29:02;9.55;;;6.25;;
74620;SDS011;64861;47.546;19.254;2022-11-15T04:31:47;8.40;;;5.88;;
74620;SDS011;64861;47.546;19.254;2022-11-15T04:34:12;10.57;;;6.45;;
74620;SDS011;64861;47.546;19.254;2022-11-15T04:36:37;10.35;;;6.00;;
74620;SDS011;64861;47.546;19.254;2022-11-15T04:39:21;11.43;;;6.20;;
74620;SDS011;64861;47.546;19.254;2022-11-15T04:41:47;12.50;;;6.10;;
74620;SDS011;64861;47.546;19.254;2022-11-15T04:44:12;11.65;;;6.13;;
74620;SDS011;64861;47.546;19.254;2022-11-15T04:46:38;8.52;;;5.78;;
74620;SDS011;64861;47.546;19.254;2022-11-15T04:49:03;9.90;;;6.30;;
74620;SDS011;64861;47.546;19.254;2022-11-15T04:51:28;11.10;;;6.07;;
74620;SDS011;64861;47.546;19.254;2022-11-15T04:53:54;10.40;;;6.50;;
74620;SDS011;64861;47.546;19.254;2022-11-15T04:56:19;8.68;;;5.75;;
74620;SDS011;64861;47.546;19.254;2022-11-15T04:58:45;9.10;;;6.20;;
74620;SDS011;64861;47.546;19.254;2022-11-15T05:01:13;9.73;;;5.90;;
74620;SDS011;64861;47.546;19.254;2022-11-15T05:03:43;10.00;;;5.93;;
74620;SDS011;64861;47.546;19.254;2022-11-15T05:06:28;8.70;;;5.78;;
74620;SDS011;64861;47.546;19.254;2022-11-15T05:08:54;9.25;;;5.90;;
74620;SDS011;64861;47.546;19.254;2022-11-15T05:11:20;8.63;;;5.88;;
74620;SDS011;64861;47.546;19.254;2022-11-15T05:13:46;9.23;;;5.97;;
74620;SDS011;64861;47.546;19.254;2022-11-15T05:16:11;9.80;;;6.18;;
74620;SDS011;64861;47.546;19.254;2022-11-15T05:18:37;8.98;;;5.90;;
74620;SDS011;64861;47.546;19.254;2022-11-15T05:21:09;9.57;;;6.60;;
74620;SDS011;64861;47.546;19.254;2022-11-15T05:23:36;10.02;;;6.13;;
74620;SDS011;64861;47.546;19.254;2022-11-15T05:26:02;10.38;;;6.18;;
74620;SDS011;64861;47.546;19.254;2022-11-15T05:28:30;9.85;;;6.10;;
74620;SDS011;64861;47.546;19.254;2022-11-15T05:33:34;9.68;;;6.43;;
74620;SDS011;64861;47.546;19.254;2022-11-15T05:36:02;9.40;;;5.78;;
74620;SDS011;64861;47.546;19.254;2022-11-15T05:38:32;8.88;;;5.72;;
74620;SDS011;64861;47.546;19.254;2022-11-15T05:40:59;9.98;;;6.18;;
74620;SDS011;64861;47.546;19.254;2022-11-15T05:43:26;9.18;;;6.32;;
74620;SDS011;64861;47.546;19.254;2022-11-15T05:45:52;10.50;;;6.22;;
74620;SDS011;64861;47.546;19.254;2022-11-15T05:48:18;8.77;;;5.85;;
74620;SDS011;64861;47.546;19.254;2022-11-15T05:50:45;9.77;;;6.10;;
74620;SDS011;64861;47.546;19.254;2022-11-15T05:53:12;8.38;;;5.80;;
74620;SDS011;64861;47.546;19.254;2022-11-15T05:55:41;10.02;;;6.13;;
74620;SDS011;64861;47.546;19.254;2022-11-15T05:58:06;9.85;;;5.90;;
74620;SDS011;64861;47.546;19.254;2022-11-15T06:00:32;8.90;;;5.82;;
74620;SDS011;64861;47.546;19.254;2022-11-15T06:02:58;9.60;;;5.93;;
74620;SDS011;64861;47.546;19.254;2022-11-15T06:05:23;10.32;;;6.63;;
74620;SDS011;64861;47.546;19.254;2022-11-15T06:07:49;8.75;;;5.90;;
74620;SDS011;64861;47.546;19.254;2022-11-15T06:10:14;12.38;;;5.90;;
74620;SDS011;64861;47.546;19.254;2022-11-15T06:12:40;9.27;;;5.93;;
74620;SDS011;64861;47.546;19.254;2022-11-15T06:15:06;10.70;;;5.65;;
74620;SDS011;64861;47.546;19.254;2022-11-15T06:17:31;9.30;;;6.20;;
74620;SDS011;64861;47.546;19.254;2022-11-15T06:19:57;10.15;;;5.93;;
74620;SDS011;64861;47.546;19.254;2022-11-15T06:22:22;11.15;;;6.07;;
74620;SDS011;64861;47.546;19.254;2022-11-15T06:24:48;10.55;;;6.78;;
74620;SDS011;64861;47.546;19.254;2022-11-15T06:27:13;11.40;;;6.03;;
74620;SDS011;64861;47.546;19.254;2022-11-15T06:29:39;12.02;;;6.43;;
74620;SDS011;64861;47.546;19.254;2022-11-15T06:32:04;13.27;;;6.25;;
74620;SDS011;64861;47.546;19.254;2022-11-15T06:34:30;14.93;;;6.22;;
74620;SDS011;64861;47.546;19.254;2022-11-15T06:36:55;14.60;;;6.38;;
74620;SDS011;64861;47.546;19.254;2022-11-15T06:39:21;19.88;;;6.03;;
74620;SDS011;64861;47.546;19.254;2022-11-15T06:41:46;17.73;;;6.30;;
74620;SDS011;64861;47.546;19.254;2022-11-15T06:44:12;15.13;;;6.45;;
74620;SDS011;64861;47.546;19.254;2022-11-15T06:46:37;22.33;;;6.18;;
74620;SDS011;64861;47.546;19.254;2022-11-15T06:49:02;22.45;;;6.40;;
74620;SDS011;64861;47.546;19.254;2022-11-15T06:51:28;16.05;;;5.50;;
74620;SDS011;64861;47.546;19.254;2022-11-15T06:53:53;17.65;;;6.00;;
74620;SDS011;64861;47.546;19.254;2022-11-15T06:56:19;12.55;;;5.40;;
74620;SDS011;64861;47.546;19.254;2022-11-15T06:58:44;19.52;;;5.63;;
74620;SDS011;64861;47.546;19.254;2022-11-15T07:01:11;18.42;;;5.18;;
74620;SDS011;64861;47.546;19.254;2022-11-15T07:03:38;11.73;;;5.18;;
74620;SDS011;64861;47.546;19.254;2022-11-15T07:06:05;18.38;;;5.88;;
74620;SDS011;64861;47.546;19.254;2022-11-15T07:08:30;15.23;;;5.63;;
74620;SDS011;64861;47.546;19.254;2022-11-15T07:10:59;16.05;;;5.85;;
74620;SDS011;64861;47.546;19.254;2022-11-15T07:13:27;13.68;;;5.60;;
74620;SDS011;64861;47.546;19.254;2022-11-15T07:15:54;16.40;;;6.18;;
74620;SDS011;64861;47.546;19.254;2022-11-15T07:18:19;11.85;;;5.95;;
74620;SDS011;64861;47.546;19.254;2022-11-15T07:20:45;11.88;;;5.18;;
74620;SDS011;64861;47.546;19.254;2022-11-15T07:23:11;17.40;;;6.05;;
74620;SDS011;64861;47.546;19.254;2022-11-15T07:25:37;24.60;;;6.93;;
74620;SDS011;64861;47.546;19.254;2022-11-15T07:28:02;18.13;;;6.70;;
74620;SDS011;64861;47.546;19.254;2022-11-15T07:30:28;17.35;;;6.03;;
74620;SDS011;64861;47.546;19.254;2022-11-15T07:32:54;11.43;;;5.82;;
74620;SDS011;64861;47.546;19.254;2022-11-15T07:35:26;15.70;;;5.63;;
74620;SDS011;64861;47.546;19.254;2022-11-15T07:38:01;14.93;;;5.85;;
74620;SDS011;64861;47.546;19.254;2022-11-15T07:40:28;11.98;;;6.00;;
74620;SDS011;64861;47.546;19.254;2022-11-15T07:43:00;16.60;;;5.85;;
74620;SDS011;64861;47.546;19.254;2022-11-15T07:45:27;20.05;;;5.90;;
74620;SDS011;64861;47.546;19.254;2022-11-15T07:47:53;18.48;;;6.30;;
74620;SDS011;64861;47.546;19.254;2022-11-15T07:50:20;15.82;;;6.10;;
74620;SDS011;64861;47.546;19.254;2022-11-15T07:52:47;12.07;;;5.45;;
74620;SDS011;64861;47.546;19.254;2022-11-15T07:55:13;13.23;;;5.65;;
74620;SDS011;64861;47.546;19.254;2022-11-15T07:57:38;13.85;;;5.72;;
74620;SDS011;64861;47.546;19.254;2022-11-15T08:00:04;15.50;;;5.95;;
74620;SDS011;64861;47.546;19.254;2022-11-15T08:02:31;13.73;;;5.85;;
74620;SDS011;64861;47.546;19.254;2022-11-15T08:04:56;13.07;;;6.00;;
74620;SDS011;64861;47.546;19.254;2022-11-15T08:07:22;12.15;;;5.78;;
74620;SDS011;64861;47.546;19.254;2022-11-15T08:09:47;10.35;;;5.95;;
74620;SDS011;64861;47.546;19.254;2022-11-15T08:12:13;13.23;;;5.30;;
74620;SDS011;64861;47.546;19.254;2022-11-15T08:14:39;10.95;;;5.50;;
74620;SDS011;64861;47.546;19.254;2022-11-15T08:17:05;15.95;;;5.68;;
74620;SDS011;64861;47.546;19.254;2022-11-15T08:19:30;11.82;;;5.55;;
74620;SDS011;64861;47.546;19.254;2022-11-15T08:21:55;13.50;;;5.93;;
74620;SDS011;64861;47.546;19.254;2022-11-15T08:24:21;12.68;;;5.18;;
74620;SDS011;64861;47.546;19.254;2022-11-15T08:26:46;10.93;;;5.47;;
74620;SDS011;64861;47.546;19.254;2022-11-15T08:29:12;13.98;;;5.53;;
74620;SDS011;64861;47.546;19.254;2022-11-15T08:31:37;13.25;;;5.97;;
74620;SDS011;64861;47.546;19.254;2022-11-15T08:34:04;12.35;;;6.15;;
74620;SDS011;64861;47.546;19.254;2022-11-15T08:36:30;12.30;;;6.10;;
74620;SDS011;64861;47.546;19.254;2022-11-15T08:38:56;12.93;;;5.88;;
74620;SDS011;64861;47.546;19.254;2022-11-15T08:41:34;11.48;;;5.60;;
74620;SDS011;64861;47.546;19.254;2022-11-15T08:44:01;12.57;;;5.90;;
74620;SDS011;64861;47.546;19.254;2022-11-15T08:46:27;13.93;;;6.03;;
74620;SDS011;64861;47.546;19.254;2022-11-15T08:48:52;10.70;;;5.70;;
74620;SDS011;64861;47.546;19.254;2022-11-15T08:51:18;10.10;;;5.03;;
74620;SDS011;64861;47.546;19.254;2022-11-15T08:53:43;9.45;;;5.55;;
74620;SDS011;64861;47.546;19.254;2022-11-15T08:56:09;9.98;;;5.60;;
74620;SDS011;64861;47.546;19.254;2022-11-15T08:58:37;9.52;;;5.15;;
74620;SDS011;64861;47.546;19.254;2022-11-15T09:01:03;10.45;;;5.35;;
74620;SDS011;64861;47.546;19.254;2022-11-15T09:03:29;10.63;;;5.38;;
74620;SDS011;64861;47.546;19.254;2022-11-15T09:05:58;9.68;;;5.30;;
74620;SDS011;64861;47.546;19.254;2022-11-15T09:08:25;10.02;;;5.60;;
74620;SDS011;64861;47.546;19.254;2022-11-15T09:10:54;8.77;;;5.15;;
74620;SDS011;64861;47.546;19.254;2022-11-15T09:13:20;9.30;;;5.55;;
74620;SDS011;64861;47.546;19.254;2022-11-15T09:15:45;10.45;;;5.13;;
74620;SDS011;64861;47.546;19.254;2022-11-15T09:18:11;11.18;;;6.00;;
74620;SDS011;64861;47.546;19.254;2022-11-15T09:20:36;8.35;;;5.35;;
74620;SDS011;64861;47.546;19.254;2022-11-15T09:23:02;7.70;;;5.03;;
74620;SDS011;64861;47.546;19.254;2022-11-15T09:25:28;10.30;;;5.15;;
74620;SDS011;64861;47.546;19.254;2022-11-15T09:27:54;9.85;;;5.18;;
74620;SDS011;64861;47.546;19.254;2022-11-15T09:30:20;8.68;;;5.32;;
74620;SDS011;64861;47.546;19.254;2022-11-15T09:32:47;8.10;;;4.97;;
74620;SDS011;64861;47.546;19.254;2022-11-15T09:35:12;9.27;;;5.30;;
74620;SDS011;64861;47.546;19.254;2022-11-15T09:37:38;7.88;;;5.13;;
74620;SDS011;64861;47.546;19.254;2022-11-15T09:40:04;9.40;;;5.35;;
74620;SDS011;64861;47.546;19.254;2022-11-15T09:50:13;8.77;;;5.10;;
74620;SDS011;64861;47.546;19.254;2022-11-15T09:52:42;9.70;;;4.93;;
74620;SDS011;64861;47.546;19.254;2022-11-15T09:55:10;8.60;;;5.20;;
74620;SDS011;64861;47.546;19.254;2022-11-15T09:58:15;9.18;;;5.10;;
74620;SDS011;64861;47.546;19.254;2022-11-15T10:01:00;7.57;;;4.65;;
74620;SDS011;64861;47.546;19.254;2022-11-15T10:03:36;8.23;;;4.80;;
74620;SDS011;64861;47.546;19.254;2022-11-15T10:06:08;8.50;;;4.75;;
74620;SDS011;64861;47.546;19.254;2022-11-15T10:08:55;10.45;;;4.55;;
74620;SDS011;64861;47.546;19.254;2022-11-15T10:11:32;10.68;;;4.88;;
74620;SDS011;64861;47.546;19.254;2022-11-15T10:14:17;10.75;;;4.90;;
74620;SDS011;64861;47.546;19.254;2022-11-15T10:19:54;8.27;;;5.00;;
74620;SDS011;64861;47.546;19.254;2022-11-15T10:22:28;10.98;;;5.57;;
74620;SDS011;64861;47.546;19.254;2022-11-15T10:27:38;9.93;;;4.82;;
74620;SDS011;64861;47.546;19.254;2022-11-15T10:30:10;11.10;;;5.00;;
74620;SDS011;64861;47.546;19.254;2022-11-15T10:32:40;10.18;;;5.05;;
74620;SDS011;64861;47.546;19.254;2022-11-15T10:38:08;11.52;;;4.93;;
74620;SDS011;64861;47.546;19.254;2022-11-15T10:40:36;13.02;;;4.72;;
74620;SDS011;64861;47.546;19.254;2022-11-15T10:43:23;10.90;;;5.00;;
74620;SDS011;64861;47.546;19.254;2022-11-15T10:45:51;8.60;;;4.70;;
74620;SDS011;64861;47.546;19.254;2022-11-15T10:50:43;7.88;;;4.57;;
74620;SDS011;64861;47.546;19.254;2022-11-15T10:53:12;7.60;;;4.55;;
74620;SDS011;64861;47.546;19.254;2022-11-15T10:55:48;11.25;;;4.88;;
74620;SDS011;64861;47.546;19.254;2022-11-15T10:58:28;12.50;;;4.63;;
74620;SDS011;64861;47.546;19.254;2022-11-15T11:01:31;9.05;;;4.60;;
74620;SDS011;64861;47.546;19.254;2022-11-15T11:04:03;12.75;;;4.57;;
74620;SDS011;64861;47.546;19.254;2022-11-15T11:06:31;12.55;;;5.45;;
74620;SDS011;64861;47.546;19.254;2022-11-15T11:12:03;12.23;;;5.10;;
74620;SDS011;64861;47.546;19.254;2022-11-15T11:14:31;10.88;;;4.85;;
74620;SDS011;64861;47.546;19.254;2022-11-15T11:20:01;10.98;;;5.05;;
74620;SDS011;64861;47.546;19.254;2022-11-15T11:25:19;12.38;;;5.07;;
74620;SDS011;64861;47.546;19.254;2022-11-15T11:30:52;10.00;;;3.92;;
74620;SDS011;64861;47.546;19.254;2022-11-15T11:41:46;8.00;;;4.32;;
74620;SDS011;64861;47.546;19.254;2022-11-15T11:44:23;8.90;;;4.57;;
74620;SDS011;64861;47.546;19.254;2022-11-15T11:46:56;8.73;;;4.55;;
74620;SDS011;64861;47.546;19.254;2022-11-15T11:54:50;8.90;;;4.80;;
74620;SDS011;64861;47.546;19.254;2022-11-15T12:02:44;8.73;;;5.43;;
74620;SDS011;64861;47.546;19.254;2022-11-15T12:05:20;9.77;;;5.22;;
74620;SDS011;64861;47.546;19.254;2022-11-15T12:07:53;10.68;;;5.32;;
74620;SDS011;64861;47.546;19.254;2022-11-15T12:10:26;11.95;;;5.20;;
74620;SDS011;64861;47.546;19.254;2022-11-15T12:13:00;10.27;;;5.80;;
74620;SDS011;64861;47.546;19.254;2022-11-15T12:15:39;11.68;;;6.10;;
74620;SDS011;64861;47.546;19.254;2022-11-15T12:18:13;14.30;;;5.93;;
74620;SDS011;64861;47.546;19.254;2022-11-15T12:20:42;12.40;;;6.05;;
74620;SDS011;64861;47.546;19.254;2022-11-15T12:23:27;14.70;;;5.93;;
74620;SDS011;64861;47.546;19.254;2022-11-15T12:26:17;11.88;;;5.85;;
74620;SDS011;64861;47.546;19.254;2022-11-15T12:28:58;10.60;;;6.40;;
74620;SDS011;64861;47.546;19.254;2022-11-15T12:31:39;10.40;;;5.93;;
74620;SDS011;64861;47.546;19.254;2022-11-15T12:36:48;11.32;;;6.10;;
74620;SDS011;64861;47.546;19.254;2022-11-15T12:39:15;9.65;;;6.22;;
74620;SDS011;64861;47.546;19.254;2022-11-15T12:41:42;16.30;;;6.78;;
74620;SDS011;64861;47.546;19.254;2022-11-15T12:44:10;11.40;;;6.32;;
74620;SDS011;64861;47.546;19.254;2022-11-15T13:02:38;13.25;;;6.47;;
74620;SDS011;64861;47.546;19.254;2022-11-15T13:20:30;11.23;;;5.45;;
74620;SDS011;64861;47.546;19.254;2022-11-15T13:28:26;12.65;;;6.10;;
74620;SDS011;64861;47.546;19.254;2022-11-15T13:33:20;14.43;;;6.63;;
74620;SDS011;64861;47.546;19.254;2022-11-15T13:35:49;13.73;;;6.13;;
74620;SDS011;64861;47.546;19.254;2022-11-15T13:38:18;17.85;;;5.80;;
74620;SDS011;64861;47.546;19.254;2022-11-15T13:40:45;10.45;;;5.95;;
74620;SDS011;64861;47.546;19.254;2022-11-15T13:43:19;9.57;;;5.50;;
74620;SDS011;64861;47.546;19.254;2022-11-15T13:46:05;10.00;;;5.30;;
74620;SDS011;64861;47.546;19.254;2022-11-15T13:48:54;17.05;;;6.40;;
74620;SDS011;64861;47.546;19.254;2022-11-15T13:51:37;18.80;;;5.88;;
74620;SDS011;64861;47.546;19.254;2022-11-15T13:56:37;14.15;;;5.55;;
74620;SDS011;64861;47.546;19.254;2022-11-15T13:59:23;9.45;;;5.20;;
74620;SDS011;64861;47.546;19.254;2022-11-15T14:01:49;15.40;;;5.55;;
74620;SDS011;64861;47.546;19.254;2022-11-15T14:04:18;12.23;;;5.45;;
74620;SDS011;64861;47.546;19.254;2022-11-15T14:06:47;11.55;;;5.25;;
74620;SDS011;64861;47.546;19.254;2022-11-15T14:11:57;13.25;;;6.53;;
74620;SDS011;64861;47.546;19.254;2022-11-15T14:14:24;14.23;;;5.30;;
74620;SDS011;64861;47.546;19.254;2022-11-15T14:16:55;10.60;;;5.50;;
74620;SDS011;64861;47.546;19.254;2022-11-15T14:24:38;12.93;;;5.30;;
74620;SDS011;64861;47.546;19.254;2022-11-15T14:29:50;10.15;;;5.38;;
74620;SDS011;64861;47.546;19.254;2022-11-15T14:34:44;11.85;;;5.47;;
74620;SDS011;64861;47.546;19.254;2022-11-15T14:37:18;10.27;;;4.90;;
74620;SDS011;64861;47.546;19.254;2022-11-15T14:39:49;11.32;;;5.07;;
74620;SDS011;64861;47.546;19.254;2022-11-15T14:42:15;8.65;;;5.00;;
74620;SDS011;64861;47.546;19.254;2022-11-15T14:44:41;11.10;;;4.93;;
74620;SDS011;64861;47.546;19.254;2022-11-15T14:47:07;9.27;;;4.78;;
74620;SDS011;64861;47.546;19.254;2022-11-15T14:49:33;11.93;;;5.00;;
74620;SDS011;64861;47.546;19.254;2022-11-15T14:51:58;9.43;;;5.43;;
74620;SDS011;64861;47.546;19.254;2022-11-15T14:54:24;8.88;;;5.05;;
74620;SDS011;64861;47.546;19.254;2022-11-15T14:56:49;10.90;;;4.78;;
74620;SDS011;64861;47.546;19.254;2022-11-15T14:59:14;10.98;;;5.10;;
74620;SDS011;64861;47.546;19.254;2022-11-15T15:01:40;9.73;;;5.47;;
74620;SDS011;64861;47.546;19.254;2022-11-15T15:04:05;9.13;;;5.35;;
74620;SDS011;64861;47.546;19.254;2022-11-15T15:06:31;8.10;;;5.00;;
74620;SDS011;64861;47.546;19.254;2022-11-15T15:08:56;7.60;;;4.93;;
74620;SDS011;64861;47.546;19.254;2022-11-15T15:11:29;12.30;;;5.32;;
74620;SDS011;64861;47.546;19.254;2022-11-15T15:13:56;10.80;;;5.50;;
74620;SDS011;64861;47.546;19.254;2022-11-15T15:16:25;11.32;;;5.00;;
74620;SDS011;64861;47.546;19.254;2022-11-15T15:18:52;10.77;;;5.97;;
74620;SDS011;64861;47.546;19.254;2022-11-15T15:21:27;8.68;;;5.30;;
74620;SDS011;64861;47.546;19.254;2022-11-15T15:23:53;13.50;;;5.57;;
74620;SDS011;64861;47.546;19.254;2022-11-15T15:26:21;10.10;;;5.72;;
74620;SDS011;64861;47.546;19.254;2022-11-15T15:28:47;21.45;;;6.55;;
74620;SDS011;64861;47.546;19.254;2022-11-15T15:31:16;7.85;;;4.85;;
74620;SDS011;64861;47.546;19.254;2022-11-15T15:33:43;12.90;;;7.22;;
74620;SDS011;64861;47.546;19.254;2022-11-15T15:36:12;19.05;;;6.53;;
74620;SDS011;64861;47.546;19.254;2022-11-15T15:38:39;13.73;;;5.43;;
74620;SDS011;64861;47.546;19.254;2022-11-15T15:41:09;17.60;;;5.85;;
74620;SDS011;64861;47.546;19.254;2022-11-15T15:43:38;12.80;;;5.55;;
74620;SDS011;64861;47.546;19.254;2022-11-15T15:46:04;13.63;;;6.07;;
74620;SDS011;64861;47.546;19.254;2022-11-15T15:48:32;12.10;;;5.38;;
74620;SDS011;64861;47.546;19.254;2022-11-15T15:51:02;38.40;;;5.95;;
74620;SDS011;64861;47.546;19.254;2022-11-15T15:53:27;14.25;;;6.32;;
74620;SDS011;64861;47.546;19.254;2022-11-15T15:55:53;15.48;;;6.28;;
74620;SDS011;64861;47.546;19.254;2022-11-15T15:58:18;23.80;;;6.90;;
74620;SDS011;64861;47.546;19.254;2022-11-15T16:00:43;16.73;;;6.57;;
74620;SDS011;64861;47.546;19.254;2022-11-15T16:03:09;15.48;;;6.10;;
74620;SDS011;64861;47.546;19.254;2022-11-15T16:05:34;13.50;;;6.28;;
74620;SDS011;64861;47.546;19.254;2022-11-15T16:08:00;15.00;;;5.50;;
74620;SDS011;64861;47.546;19.254;2022-11-15T16:10:26;13.55;;;6.28;;
74620;SDS011;64861;47.546;19.254;2022-11-15T16:13:02;18.58;;;6.25;;
74620;SDS011;64861;47.546;19.254;2022-11-15T16:15:29;10.82;;;5.93;;
74620;SDS011;64861;47.546;19.254;2022-11-15T16:17:56;12.05;;;6.18;;
74620;SDS011;64861;47.546;19.254;2022-11-15T16:22:54;15.77;;;6.75;;
74620;SDS011;64861;47.546;19.254;2022-11-15T16:25:19;14.50;;;6.00;;
74620;SDS011;64861;47.546;19.254;2022-11-15T16:27:45;25.17;;;7.07;;
74620;SDS011;64861;47.546;19.254;2022-11-15T16:30:14;18.45;;;6.15;;
74620;SDS011;64861;47.546;19.254;2022-11-15T16:32:41;22.63;;;6.80;;
74620;SDS011;64861;47.546;19.254;2022-11-15T16:35:10;17.02;;;6.03;;
74620;SDS011;64861;47.546;19.254;2022-11-15T16:37:39;14.75;;;6.28;;
74620;SDS011;64861;47.546;19.254;2022-11-15T16:40:48;15.80;;;5.82;;
74620;SDS011;64861;47.546;19.254;2022-11-15T16:42:58;15.40;;;4.95;;
74620;SDS011;64861;47.546;19.254;2022-11-15T16:45:26;16.25;;;5.10;;
74620;SDS011;64861;47.546;19.254;2022-11-15T16:47:53;11.13;;;5.00;;
74620;SDS011;64861;47.546;19.254;2022-11-15T16:50:21;15.73;;;4.93;;
74620;SDS011;64861;47.546;19.254;2022-11-15T16:52:54;9.77;;;4.68;;
74620;SDS011;64861;47.546;19.254;2022-11-15T16:55:21;11.27;;;4.63;;
74620;SDS011;64861;47.546;19.254;2022-11-15T16:57:48;14.35;;;4.57;;
74620;SDS011;64861;47.546;19.254;2022-11-15T17:00:14;14.77;;;5.00;;
74620;SDS011;64861;47.546;19.254;2022-11-15T17:02:42;9.23;;;5.07;;